sensor_id;sensor_type;location;lat;lon;timestamp;P1;durP1;ratioP1;P2;durP2;ratioP2
35114;SDS011;21292;52.416;13.046;2023-05-07T00:00:51;30.35;;;19.77;;
35114;SDS011;21292;52.416;13.046;2023-05-07T00:03:20;28.90;;;19.95;;
35114;SDS011;21292;52.416;13.046;2023-05-07T00:05:49;25.42;;;18.38;;
35114;SDS011;21292;52.416;13.046;2023-05-07T00:08:20;27.45;;;19.15;;
35114;SDS011;21292;52.416;13.046;2023-05-07T00:10:49;28.73;;;18.20;;
35114;SDS011;21292;52.416;13.046;2023-05-07T00:13:23;25.17;;;17.75;;
35114;SDS011;21292;52.416;13.046;2023-05-07T00:15:52;27.77;;;17.38;;
35114;SDS011;21292;52.416;13.046;2023-05-07T00:18:20;23.90;;;17.90;;
35114;SDS011;21292;52.416;13.046;2023-05-07T00:20:49;25.63;;;17.25;;
35114;SDS011;21292;52.416;13.046;2023-05-07T00:23:19;24.73;;;16.83;;
35114;SDS011;21292;52.416;13.046;2023-05-07T00:25:47;23.17;;;16.42;;
35114;SDS011;21292;52.416;13.046;2023-05-07T00:28:16;27.13;;;17.25;;
35114;SDS011;21292;52.416;13.046;2023-05-07T00:30:46;22.92;;;16.67;;
35114;SDS011;21292;52.416;13.046;2023-05-07T00:33:14;23.75;;;16.30;;
35114;SDS011;21292;52.416;13.046;2023-05-07T00:35:43;19.60;;;15.48;;
35114;SDS011;21292;52.416;13.046;2023-05-07T00:38:11;24.40;;;15.95;;
35114;SDS011;21292;52.416;13.046;2023-05-07T00:40:40;18.00;;;13.57;;
35114;SDS011;21292;52.416;13.046;2023-05-07T00:43:08;21.27;;;15.07;;
35114;SDS011;21292;52.416;13.046;2023-05-07T00:45:38;22.67;;;14.30;;
35114;SDS011;21292;52.416;13.046;2023-05-07T00:48:12;24.55;;;16.42;;
35114;SDS011;21292;52.416;13.046;2023-05-07T00:50:42;21.75;;;15.25;;
35114;SDS011;21292;52.416;13.046;2023-05-07T00:53:12;22.65;;;16.33;;
35114;SDS011;21292;52.416;13.046;2023-05-07T00:55:41;24.15;;;16.65;;
35114;SDS011;21292;52.416;13.046;2023-05-07T00:58:09;19.98;;;14.85;;
35114;SDS011;21292;52.416;13.046;2023-05-07T01:00:38;22.70;;;14.65;;
35114;SDS011;21292;52.416;13.046;2023-05-07T01:03:07;22.35;;;14.60;;
35114;SDS011;21292;52.416;13.046;2023-05-07T01:05:40;22.77;;;15.80;;
35114;SDS011;21292;52.416;13.046;2023-05-07T01:08:10;30.50;;;16.83;;
35114;SDS011;21292;52.416;13.046;2023-05-07T01:10:40;23.50;;;16.10;;
35114;SDS011;21292;52.416;13.046;2023-05-07T01:13:09;22.30;;;14.38;;
35114;SDS011;21292;52.416;13.046;2023-05-07T01:15:40;21.90;;;14.95;;
35114;SDS011;21292;52.416;13.046;2023-05-07T01:18:09;21.05;;;16.55;;
35114;SDS011;21292;52.416;13.046;2023-05-07T01:20:37;20.42;;;15.15;;
35114;SDS011;21292;52.416;13.046;2023-05-07T01:23:07;24.08;;;15.57;;
35114;SDS011;21292;52.416;13.046;2023-05-07T01:25:36;23.40;;;15.80;;
35114;SDS011;21292;52.416;13.046;2023-05-07T01:28:04;20.27;;;15.30;;
35114;SDS011;21292;52.416;13.046;2023-05-07T01:30:33;22.27;;;14.77;;
35114;SDS011;21292;52.416;13.046;2023-05-07T01:33:03;23.30;;;15.73;;
35114;SDS011;21292;52.416;13.046;2023-05-07T01:35:34;20.83;;;15.45;;
35114;SDS011;21292;52.416;13.046;2023-05-07T01:38:05;21.27;;;14.38;;
35114;SDS011;21292;52.416;13.046;2023-05-07T01:40:39;24.45;;;15.82;;
35114;SDS011;21292;52.416;13.046;2023-05-07T01:43:10;24.30;;;15.73;;
35114;SDS011;21292;52.416;13.046;2023-05-07T01:45:40;20.95;;;13.65;;
35114;SDS011;21292;52.416;13.046;2023-05-07T01:48:09;20.45;;;13.98;;
35114;SDS011;21292;52.416;13.046;2023-05-07T01:50:39;17.40;;;13.13;;
35114;SDS011;21292;52.416;13.046;2023-05-07T01:53:10;16.67;;;12.57;;
35114;SDS011;21292;52.416;13.046;2023-05-07T01:55:41;18.85;;;13.43;;
35114;SDS011;21292;52.416;13.046;2023-05-07T01:58:09;18.58;;;12.73;;
35114;SDS011;21292;52.416;13.046;2023-05-07T02:00:39;19.45;;;13.13;;
35114;SDS011;21292;52.416;13.046;2023-05-07T02:03:08;17.70;;;12.90;;
35114;SDS011;21292;52.416;13.046;2023-05-07T02:05:41;20.58;;;12.60;;
35114;SDS011;21292;52.416;13.046;2023-05-07T02:08:09;24.15;;;12.60;;
35114;SDS011;21292;52.416;13.046;2023-05-07T02:10:37;19.80;;;12.00;;
35114;SDS011;21292;52.416;13.046;2023-05-07T02:13:07;18.73;;;11.68;;
35114;SDS011;21292;52.416;13.046;2023-05-07T02:15:35;17.42;;;12.05;;
35114;SDS011;21292;52.416;13.046;2023-05-07T02:18:05;15.50;;;11.48;;
35114;SDS011;21292;52.416;13.046;2023-05-07T02:20:34;16.75;;;11.75;;
35114;SDS011;21292;52.416;13.046;2023-05-07T02:23:03;13.82;;;11.23;;
35114;SDS011;21292;52.416;13.046;2023-05-07T02:25:31;16.50;;;12.02;;
35114;SDS011;21292;52.416;13.046;2023-05-07T02:28:00;16.42;;;12.52;;
35114;SDS011;21292;52.416;13.046;2023-05-07T02:30:30;16.27;;;11.50;;
35114;SDS011;21292;52.416;13.046;2023-05-07T02:32:59;15.27;;;11.43;;
35114;SDS011;21292;52.416;13.046;2023-05-07T02:35:28;15.35;;;11.50;;
35114;SDS011;21292;52.416;13.046;2023-05-07T02:37:56;18.02;;;11.02;;
35114;SDS011;21292;52.416;13.046;2023-05-07T02:40:27;16.50;;;10.82;;
35114;SDS011;21292;52.416;13.046;2023-05-07T02:42:56;15.32;;;12.23;;
35114;SDS011;21292;52.416;13.046;2023-05-07T02:45:26;13.38;;;10.70;;
35114;SDS011;21292;52.416;13.046;2023-05-07T02:47:57;13.05;;;9.82;;
35114;SDS011;21292;52.416;13.046;2023-05-07T02:50:26;10.95;;;8.48;;
35114;SDS011;21292;52.416;13.046;2023-05-07T02:53:08;12.02;;;9.25;;
35114;SDS011;21292;52.416;13.046;2023-05-07T02:55:37;16.63;;;9.02;;
35114;SDS011;21292;52.416;13.046;2023-05-07T02:58:06;12.40;;;8.65;;
35114;SDS011;21292;52.416;13.046;2023-05-07T03:00:35;15.07;;;9.50;;
35114;SDS011;21292;52.416;13.046;2023-05-07T03:03:05;13.63;;;9.55;;
35114;SDS011;21292;52.416;13.046;2023-05-07T03:05:33;14.32;;;9.18;;
35114;SDS011;21292;52.416;13.046;2023-05-07T03:08:02;14.13;;;9.15;;
35114;SDS011;21292;52.416;13.046;2023-05-07T03:10:31;15.85;;;10.10;;
35114;SDS011;21292;52.416;13.046;2023-05-07T03:13:01;16.23;;;10.00;;
35114;SDS011;21292;52.416;13.046;2023-05-07T03:15:29;15.38;;;10.93;;
35114;SDS011;21292;52.416;13.046;2023-05-07T03:17:57;14.88;;;10.85;;
35114;SDS011;21292;52.416;13.046;2023-05-07T03:20:27;17.75;;;11.25;;
35114;SDS011;21292;52.416;13.046;2023-05-07T03:22:57;17.17;;;11.23;;
35114;SDS011;21292;52.416;13.046;2023-05-07T03:25:27;18.33;;;11.70;;
35114;SDS011;21292;52.416;13.046;2023-05-07T03:28:00;17.83;;;11.98;;
35114;SDS011;21292;52.416;13.046;2023-05-07T03:30:30;16.58;;;11.75;;
35114;SDS011;21292;52.416;13.046;2023-05-07T03:32:58;16.27;;;11.82;;
35114;SDS011;21292;52.416;13.046;2023-05-07T03:35:28;15.95;;;11.77;;
35114;SDS011;21292;52.416;13.046;2023-05-07T03:37:57;17.75;;;11.52;;
35114;SDS011;21292;52.416;13.046;2023-05-07T03:40:25;15.40;;;11.80;;
35114;SDS011;21292;52.416;13.046;2023-05-07T03:42:53;22.98;;;12.35;;
35114;SDS011;21292;52.416;13.046;2023-05-07T03:45:22;14.70;;;11.18;;
35114;SDS011;21292;52.416;13.046;2023-05-07T03:47:51;17.38;;;10.85;;
35114;SDS011;21292;52.416;13.046;2023-05-07T03:50:19;18.98;;;11.82;;
35114;SDS011;21292;52.416;13.046;2023-05-07T03:52:52;18.45;;;11.75;;
35114;SDS011;21292;52.416;13.046;2023-05-07T03:55:20;20.15;;;11.65;;
35114;SDS011;21292;52.416;13.046;2023-05-07T03:57:49;16.40;;;10.30;;
35114;SDS011;21292;52.416;13.046;2023-05-07T04:00:21;15.40;;;10.53;;
35114;SDS011;21292;52.416;13.046;2023-05-07T04:02:49;14.10;;;10.20;;
35114;SDS011;21292;52.416;13.046;2023-05-07T04:05:17;16.27;;;10.73;;
35114;SDS011;21292;52.416;13.046;2023-05-07T04:07:48;21.50;;;12.10;;
35114;SDS011;21292;52.416;13.046;2023-05-07T04:10:18;17.45;;;11.00;;
35114;SDS011;21292;52.416;13.046;2023-05-07T04:12:49;17.27;;;11.82;;
35114;SDS011;21292;52.416;13.046;2023-05-07T04:15:19;16.27;;;11.13;;
35114;SDS011;21292;52.416;13.046;2023-05-07T04:17:48;19.98;;;12.05;;
35114;SDS011;21292;52.416;13.046;2023-05-07T04:20:16;19.05;;;12.07;;
35114;SDS011;21292;52.416;13.046;2023-05-07T04:22:45;16.88;;;11.95;;
35114;SDS011;21292;52.416;13.046;2023-05-07T04:25:14;16.73;;;11.93;;
35114;SDS011;21292;52.416;13.046;2023-05-07T04:27:45;17.92;;;12.30;;
35114;SDS011;21292;52.416;13.046;2023-05-07T04:30:13;23.90;;;13.10;;
35114;SDS011;21292;52.416;13.046;2023-05-07T04:32:42;16.73;;;11.77;;
35114;SDS011;21292;52.416;13.046;2023-05-07T04:35:12;16.77;;;12.65;;
35114;SDS011;21292;52.416;13.046;2023-05-07T04:37:42;18.92;;;13.75;;
35114;SDS011;21292;52.416;13.046;2023-05-07T04:40:10;21.00;;;12.55;;
35114;SDS011;21292;52.416;13.046;2023-05-07T04:42:39;17.45;;;11.45;;
35114;SDS011;21292;52.416;13.046;2023-05-07T04:45:09;16.98;;;11.88;;
35114;SDS011;21292;52.416;13.046;2023-05-07T04:47:39;16.67;;;10.98;;
35114;SDS011;21292;52.416;13.046;2023-05-07T04:50:10;14.35;;;10.98;;
35114;SDS011;21292;52.416;13.046;2023-05-07T04:52:40;16.40;;;10.90;;
35114;SDS011;21292;52.416;13.046;2023-05-07T04:55:09;19.58;;;10.13;;
35114;SDS011;21292;52.416;13.046;2023-05-07T04:57:37;19.92;;;9.88;;
35114;SDS011;21292;52.416;13.046;2023-05-07T05:00:09;13.20;;;9.23;;
35114;SDS011;21292;52.416;13.046;2023-05-07T05:02:40;12.80;;;9.30;;
35114;SDS011;21292;52.416;13.046;2023-05-07T05:05:10;14.43;;;9.48;;
35114;SDS011;21292;52.416;13.046;2023-05-07T05:07:38;14.45;;;9.05;;
35114;SDS011;21292;52.416;13.046;2023-05-07T05:10:08;12.75;;;9.38;;
35114;SDS011;21292;52.416;13.046;2023-05-07T05:12:37;14.13;;;10.20;;
35114;SDS011;21292;52.416;13.046;2023-05-07T05:15:09;13.18;;;9.43;;
35114;SDS011;21292;52.416;13.046;2023-05-07T05:17:38;15.80;;;9.65;;
35114;SDS011;21292;52.416;13.046;2023-05-07T05:20:07;14.55;;;9.75;;
35114;SDS011;21292;52.416;13.046;2023-05-07T05:22:39;11.55;;;8.32;;
35114;SDS011;21292;52.416;13.046;2023-05-07T05:25:09;13.90;;;8.50;;
35114;SDS011;21292;52.416;13.046;2023-05-07T05:27:38;11.00;;;7.40;;
35114;SDS011;21292;52.416;13.046;2023-05-07T05:30:07;12.65;;;8.30;;
35114;SDS011;21292;52.416;13.046;2023-05-07T05:32:37;11.02;;;8.32;;
35114;SDS011;21292;52.416;13.046;2023-05-07T05:35:06;11.90;;;9.18;;
35114;SDS011;21292;52.416;13.046;2023-05-07T05:37:39;17.05;;;9.32;;
35114;SDS011;21292;52.416;13.046;2023-05-07T05:40:10;10.93;;;8.68;;
35114;SDS011;21292;52.416;13.046;2023-05-07T05:42:39;12.70;;;8.90;;
35114;SDS011;21292;52.416;13.046;2023-05-07T05:45:11;13.57;;;9.75;;
35114;SDS011;21292;52.416;13.046;2023-05-07T05:47:40;9.80;;;7.13;;
35114;SDS011;21292;52.416;13.046;2023-05-07T05:50:09;14.32;;;9.25;;
35114;SDS011;21292;52.416;13.046;2023-05-07T05:52:38;11.93;;;9.60;;
35114;SDS011;21292;52.416;13.046;2023-05-07T05:55:07;16.67;;;9.00;;
35114;SDS011;21292;52.416;13.046;2023-05-07T05:57:36;10.77;;;7.90;;
35114;SDS011;21292;52.416;13.046;2023-05-07T06:00:06;9.77;;;8.63;;
35114;SDS011;21292;52.416;13.046;2023-05-07T06:02:37;13.68;;;7.53;;
35114;SDS011;21292;52.416;13.046;2023-05-07T06:05:06;12.00;;;8.13;;
35114;SDS011;21292;52.416;13.046;2023-05-07T06:07:35;10.10;;;8.02;;
35114;SDS011;21292;52.416;13.046;2023-05-07T06:10:04;11.02;;;8.18;;
35114;SDS011;21292;52.416;13.046;2023-05-07T06:12:37;12.45;;;8.15;;
35114;SDS011;21292;52.416;13.046;2023-05-07T06:15:05;12.50;;;8.38;;
35114;SDS011;21292;52.416;13.046;2023-05-07T06:17:35;14.32;;;7.68;;
35114;SDS011;21292;52.416;13.046;2023-05-07T06:20:06;8.80;;;7.63;;
35114;SDS011;21292;52.416;13.046;2023-05-07T06:25:04;11.65;;;7.00;;
35114;SDS011;21292;52.416;13.046;2023-05-07T06:27:33;9.43;;;7.10;;
35114;SDS011;21292;52.416;13.046;2023-05-07T06:30:02;13.45;;;7.53;;
35114;SDS011;21292;52.416;13.046;2023-05-07T06:32:31;11.80;;;7.53;;
35114;SDS011;21292;52.416;13.046;2023-05-07T06:35:00;8.95;;;6.60;;
35114;SDS011;21292;52.416;13.046;2023-05-07T06:37:30;8.90;;;6.55;;
35114;SDS011;21292;52.416;13.046;2023-05-07T06:39:58;10.23;;;6.82;;
35114;SDS011;21292;52.416;13.046;2023-05-07T06:42:27;10.77;;;6.30;;
35114;SDS011;21292;52.416;13.046;2023-05-07T06:44:59;6.90;;;5.43;;
35114;SDS011;21292;52.416;13.046;2023-05-07T06:47:27;8.52;;;5.35;;
35114;SDS011;21292;52.416;13.046;2023-05-07T06:49:55;9.82;;;6.10;;
35114;SDS011;21292;52.416;13.046;2023-05-07T06:52:23;8.27;;;5.63;;
35114;SDS011;21292;52.416;13.046;2023-05-07T06:54:52;7.65;;;6.28;;
35114;SDS011;21292;52.416;13.046;2023-05-07T06:57:30;8.43;;;5.22;;
35114;SDS011;21292;52.416;13.046;2023-05-07T07:00:00;6.88;;;5.82;;
35114;SDS011;21292;52.416;13.046;2023-05-07T07:02:28;9.25;;;5.78;;
35114;SDS011;21292;52.416;13.046;2023-05-07T07:04:59;7.18;;;5.07;;
35114;SDS011;21292;52.416;13.046;2023-05-07T07:07:29;6.10;;;5.10;;
35114;SDS011;21292;52.416;13.046;2023-05-07T07:10:01;8.77;;;5.68;;
35114;SDS011;21292;52.416;13.046;2023-05-07T07:12:35;8.32;;;5.40;;
35114;SDS011;21292;52.416;13.046;2023-05-07T07:15:05;9.27;;;5.43;;
35114;SDS011;21292;52.416;13.046;2023-05-07T07:17:34;7.75;;;4.95;;
35114;SDS011;21292;52.416;13.046;2023-05-07T07:20:09;11.77;;;4.93;;
35114;SDS011;21292;52.416;13.046;2023-05-07T07:22:38;7.05;;;4.80;;
35114;SDS011;21292;52.416;13.046;2023-05-07T07:25:09;8.35;;;4.50;;
35114;SDS011;21292;52.416;13.046;2023-05-07T07:27:38;5.55;;;4.45;;
35114;SDS011;21292;52.416;13.046;2023-05-07T07:30:08;7.38;;;5.38;;
35114;SDS011;21292;52.416;13.046;2023-05-07T07:32:38;7.97;;;5.43;;
35114;SDS011;21292;52.416;13.046;2023-05-07T07:35:21;7.22;;;5.07;;
35114;SDS011;21292;52.416;13.046;2023-05-07T07:37:51;5.88;;;5.05;;
35114;SDS011;21292;52.416;13.046;2023-05-07T07:40:25;5.55;;;4.90;;
35114;SDS011;21292;52.416;13.046;2023-05-07T07:42:54;9.00;;;5.13;;
35114;SDS011;21292;52.416;13.046;2023-05-07T07:45:24;6.53;;;5.00;;
35114;SDS011;21292;52.416;13.046;2023-05-07T07:47:52;8.50;;;4.35;;
35114;SDS011;21292;52.416;13.046;2023-05-07T07:50:21;5.57;;;4.53;;
35114;SDS011;21292;52.416;13.046;2023-05-07T07:53:10;6.47;;;4.60;;
35114;SDS011;21292;52.416;13.046;2023-05-07T07:55:41;8.20;;;4.78;;
35114;SDS011;21292;52.416;13.046;2023-05-07T07:58:09;7.53;;;4.88;;
35114;SDS011;21292;52.416;13.046;2023-05-07T08:00:38;7.30;;;4.57;;
35114;SDS011;21292;52.416;13.046;2023-05-07T08:03:08;10.82;;;5.10;;
35114;SDS011;21292;52.416;13.046;2023-05-07T08:05:39;9.35;;;5.68;;
35114;SDS011;21292;52.416;13.046;2023-05-07T08:08:08;8.52;;;4.72;;
35114;SDS011;21292;52.416;13.046;2023-05-07T08:10:36;6.65;;;5.07;;
35114;SDS011;21292;52.416;13.046;2023-05-07T08:13:13;5.60;;;4.35;;
35114;SDS011;21292;52.416;13.046;2023-05-07T08:15:41;9.60;;;4.90;;
35114;SDS011;21292;52.416;13.046;2023-05-07T08:18:11;7.72;;;5.30;;
35114;SDS011;21292;52.416;13.046;2023-05-07T08:20:42;8.00;;;5.17;;
35114;SDS011;21292;52.416;13.046;2023-05-07T08:23:12;7.10;;;4.63;;
35114;SDS011;21292;52.416;13.046;2023-05-07T08:25:41;10.30;;;4.95;;
35114;SDS011;21292;52.416;13.046;2023-05-07T08:28:13;5.53;;;4.60;;
35114;SDS011;21292;52.416;13.046;2023-05-07T08:30:41;7.25;;;4.45;;
35114;SDS011;21292;52.416;13.046;2023-05-07T08:33:10;6.85;;;4.25;;
35114;SDS011;21292;52.416;13.046;2023-05-07T08:35:38;6.85;;;3.83;;
35114;SDS011;21292;52.416;13.046;2023-05-07T08:38:07;6.85;;;4.63;;
35114;SDS011;21292;52.416;13.046;2023-05-07T08:40:36;5.20;;;3.90;;
35114;SDS011;21292;52.416;13.046;2023-05-07T08:43:05;8.93;;;3.85;;
35114;SDS011;21292;52.416;13.046;2023-05-07T08:45:36;5.63;;;4.25;;
35114;SDS011;21292;52.416;13.046;2023-05-07T08:48:14;4.85;;;3.85;;
35114;SDS011;21292;52.416;13.046;2023-05-07T08:50:44;6.43;;;3.20;;
35114;SDS011;21292;52.416;13.046;2023-05-07T08:53:13;5.43;;;4.10;;
35114;SDS011;21292;52.416;13.046;2023-05-07T08:55:43;4.93;;;3.65;;
35114;SDS011;21292;52.416;13.046;2023-05-07T08:58:13;5.32;;;3.10;;
35114;SDS011;21292;52.416;13.046;2023-05-07T09:00:43;4.53;;;3.55;;
35114;SDS011;21292;52.416;13.046;2023-05-07T09:03:11;5.63;;;3.60;;
35114;SDS011;21292;52.416;13.046;2023-05-07T09:05:43;4.13;;;3.45;;
35114;SDS011;21292;52.416;13.046;2023-05-07T09:08:14;5.72;;;3.10;;
35114;SDS011;21292;52.416;13.046;2023-05-07T09:10:43;5.95;;;3.40;;
35114;SDS011;21292;52.416;13.046;2023-05-07T09:13:12;4.55;;;2.80;;
35114;SDS011;21292;52.416;13.046;2023-05-07T09:15:43;8.27;;;2.80;;
35114;SDS011;21292;52.416;13.046;2023-05-07T09:18:11;5.43;;;3.20;;
35114;SDS011;21292;52.416;13.046;2023-05-07T09:20:42;3.58;;;2.95;;
35114;SDS011;21292;52.416;13.046;2023-05-07T09:23:10;4.57;;;2.65;;
35114;SDS011;21292;52.416;13.046;2023-05-07T09:25:38;3.15;;;2.70;;
35114;SDS011;21292;52.416;13.046;2023-05-07T09:28:07;7.28;;;2.80;;
35114;SDS011;21292;52.416;13.046;2023-05-07T09:30:37;5.82;;;2.88;;
35114;SDS011;21292;52.416;13.046;2023-05-07T09:33:07;3.90;;;2.50;;
35114;SDS011;21292;52.416;13.046;2023-05-07T09:35:37;4.90;;;3.08;;
35114;SDS011;21292;52.416;13.046;2023-05-07T09:38:06;3.22;;;2.88;;
35114;SDS011;21292;52.416;13.046;2023-05-07T09:40:35;4.38;;;3.22;;
35114;SDS011;21292;52.416;13.046;2023-05-07T09:43:08;9.77;;;2.90;;
35114;SDS011;21292;52.416;13.046;2023-05-07T09:45:37;10.45;;;6.95;;
35114;SDS011;21292;52.416;13.046;2023-05-07T09:48:07;35.58;;;23.77;;
35114;SDS011;21292;52.416;13.046;2023-05-07T09:50:36;7.88;;;5.85;;
35114;SDS011;21292;52.416;13.046;2023-05-07T09:53:08;27.67;;;15.80;;
35114;SDS011;21292;52.416;13.046;2023-05-07T09:55:37;14.18;;;10.93;;
35114;SDS011;21292;52.416;13.046;2023-05-07T09:58:07;4.65;;;2.88;;
35114;SDS011;21292;52.416;13.046;2023-05-07T10:00:37;5.10;;;2.63;;
35114;SDS011;21292;52.416;13.046;2023-05-07T10:03:09;2.88;;;2.55;;
35114;SDS011;21292;52.416;13.046;2023-05-07T10:05:39;3.75;;;2.65;;
35114;SDS011;21292;52.416;13.046;2023-05-07T10:08:10;3.63;;;2.72;;
35114;SDS011;21292;52.416;13.046;2023-05-07T10:10:39;3.25;;;2.53;;
35114;SDS011;21292;52.416;13.046;2023-05-07T10:13:10;3.30;;;2.55;;
35114;SDS011;21292;52.416;13.046;2023-05-07T10:15:39;2.40;;;2.20;;
35114;SDS011;21292;52.416;13.046;2023-05-07T10:18:09;8.95;;;2.38;;
35114;SDS011;21292;52.416;13.046;2023-05-07T10:20:38;7.32;;;2.80;;
35114;SDS011;21292;52.416;13.046;2023-05-07T10:23:13;3.25;;;2.75;;
35114;SDS011;21292;52.416;13.046;2023-05-07T10:25:44;4.40;;;2.72;;
35114;SDS011;21292;52.416;13.046;2023-05-07T10:28:13;3.63;;;2.10;;
35114;SDS011;21292;52.416;13.046;2023-05-07T10:30:45;4.32;;;2.50;;
35114;SDS011;21292;52.416;13.046;2023-05-07T10:33:26;3.80;;;2.63;;
35114;SDS011;21292;52.416;13.046;2023-05-07T10:35:57;5.57;;;2.63;;
35114;SDS011;21292;52.416;13.046;2023-05-07T10:38:28;4.37;;;2.43;;
35114;SDS011;21292;52.416;13.046;2023-05-07T10:40:58;3.47;;;2.72;;
35114;SDS011;21292;52.416;13.046;2023-05-07T10:43:37;3.83;;;2.20;;
35114;SDS011;21292;52.416;13.046;2023-05-07T10:46:11;4.47;;;2.30;;
35114;SDS011;21292;52.416;13.046;2023-05-07T10:51:39;5.30;;;2.70;;
35114;SDS011;21292;52.416;13.046;2023-05-07T10:54:18;3.15;;;2.20;;
35114;SDS011;21292;52.416;13.046;2023-05-07T10:56:51;2.47;;;2.28;;
35114;SDS011;21292;52.416;13.046;2023-05-07T10:59:30;3.15;;;2.10;;
35114;SDS011;21292;52.416;13.046;2023-05-07T11:02:07;2.22;;;1.95;;
35114;SDS011;21292;52.416;13.046;2023-05-07T11:04:39;2.90;;;1.80;;
35114;SDS011;21292;52.416;13.046;2023-05-07T11:07:27;2.85;;;1.77;;
35114;SDS011;21292;52.416;13.046;2023-05-07T11:09:58;3.70;;;2.20;;
35114;SDS011;21292;52.416;13.046;2023-05-07T11:12:47;4.22;;;3.83;;
35114;SDS011;21292;52.416;13.046;2023-05-07T11:15:37;5.57;;;3.55;;
35114;SDS011;21292;52.416;13.046;2023-05-07T11:18:13;2.33;;;1.92;;
35114;SDS011;21292;52.416;13.046;2023-05-07T11:20:53;4.07;;;2.08;;
35114;SDS011;21292;52.416;13.046;2023-05-07T11:26:29;2.85;;;2.35;;
35114;SDS011;21292;52.416;13.046;2023-05-07T11:31:28;2.22;;;1.75;;
35114;SDS011;21292;52.416;13.046;2023-05-07T11:34:00;2.70;;;1.98;;
35114;SDS011;21292;52.416;13.046;2023-05-07T11:36:42;3.10;;;2.17;;
35114;SDS011;21292;52.416;13.046;2023-05-07T11:39:23;2.85;;;2.30;;
35114;SDS011;21292;52.416;13.046;2023-05-07T11:41:53;2.20;;;1.92;;
35114;SDS011;21292;52.416;13.046;2023-05-07T11:44:22;3.45;;;2.08;;
35114;SDS011;21292;52.416;13.046;2023-05-07T11:46:50;3.47;;;2.25;;
35114;SDS011;21292;52.416;13.046;2023-05-07T11:49:19;3.13;;;2.17;;
35114;SDS011;21292;52.416;13.046;2023-05-07T11:51:50;4.03;;;2.03;;
35114;SDS011;21292;52.416;13.046;2023-05-07T11:54:18;3.70;;;2.10;;
35114;SDS011;21292;52.416;13.046;2023-05-07T11:56:48;3.95;;;2.25;;
35114;SDS011;21292;52.416;13.046;2023-05-07T11:59:18;3.53;;;1.63;;
35114;SDS011;21292;52.416;13.046;2023-05-07T12:01:48;5.65;;;2.13;;
35114;SDS011;21292;52.416;13.046;2023-05-07T12:04:19;3.95;;;2.17;;
35114;SDS011;21292;52.416;13.046;2023-05-07T12:09:26;3.80;;;2.25;;
35114;SDS011;21292;52.416;13.046;2023-05-07T12:11:57;2.35;;;2.03;;
35114;SDS011;21292;52.416;13.046;2023-05-07T12:14:32;1.95;;;1.75;;
35114;SDS011;21292;52.416;13.046;2023-05-07T12:17:01;2.85;;;2.05;;
35114;SDS011;21292;52.416;13.046;2023-05-07T12:19:30;3.08;;;2.45;;
35114;SDS011;21292;52.416;13.046;2023-05-07T12:22:01;2.35;;;2.10;;
35114;SDS011;21292;52.416;13.046;2023-05-07T12:24:42;2.42;;;2.15;;
35114;SDS011;21292;52.416;13.046;2023-05-07T12:27:14;3.25;;;2.55;;
35114;SDS011;21292;52.416;13.046;2023-05-07T12:29:44;2.00;;;1.80;;
35114;SDS011;21292;52.416;13.046;2023-05-07T12:32:13;2.35;;;2.10;;
35114;SDS011;21292;52.416;13.046;2023-05-07T12:34:42;5.32;;;2.00;;
35114;SDS011;21292;52.416;13.046;2023-05-07T12:37:13;2.65;;;1.95;;
35114;SDS011;21292;52.416;13.046;2023-05-07T12:39:44;2.65;;;2.30;;
35114;SDS011;21292;52.416;13.046;2023-05-07T12:42:15;4.85;;;2.10;;
35114;SDS011;21292;52.416;13.046;2023-05-07T12:44:45;2.63;;;2.05;;
35114;SDS011;21292;52.416;13.046;2023-05-07T12:47:14;4.03;;;2.17;;
35114;SDS011;21292;52.416;13.046;2023-05-07T12:49:43;2.58;;;1.80;;
35114;SDS011;21292;52.416;13.046;2023-05-07T12:52:14;3.40;;;1.70;;
35114;SDS011;21292;52.416;13.046;2023-05-07T12:54:44;3.53;;;1.98;;
35114;SDS011;21292;52.416;13.046;2023-05-07T12:57:13;1.88;;;1.70;;
35114;SDS011;21292;52.416;13.046;2023-05-07T12:59:44;4.20;;;1.63;;
35114;SDS011;21292;52.416;13.046;2023-05-07T13:02:13;2.22;;;2.00;;
35114;SDS011;21292;52.416;13.046;2023-05-07T13:04:41;2.42;;;1.75;;
35114;SDS011;21292;52.416;13.046;2023-05-07T13:07:10;3.97;;;2.35;;
35114;SDS011;21292;52.416;13.046;2023-05-07T13:09:41;2.17;;;2.03;;
35114;SDS011;21292;52.416;13.046;2023-05-07T13:12:10;2.00;;;1.80;;
35114;SDS011;21292;52.416;13.046;2023-05-07T13:14:39;2.40;;;2.00;;
35114;SDS011;21292;52.416;13.046;2023-05-07T13:17:09;2.05;;;1.75;;
35114;SDS011;21292;52.416;13.046;2023-05-07T13:19:39;4.13;;;2.08;;
35114;SDS011;21292;52.416;13.046;2023-05-07T13:22:08;4.50;;;2.20;;
35114;SDS011;21292;52.416;13.046;2023-05-07T13:24:37;3.78;;;2.35;;
35114;SDS011;21292;52.416;13.046;2023-05-07T13:27:12;3.10;;;1.83;;
35114;SDS011;21292;52.416;13.046;2023-05-07T13:29:42;2.60;;;1.95;;
35114;SDS011;21292;52.416;13.046;2023-05-07T13:32:10;2.47;;;1.85;;
35114;SDS011;21292;52.416;13.046;2023-05-07T13:34:40;3.00;;;2.00;;
35114;SDS011;21292;52.416;13.046;2023-05-07T13:37:09;2.88;;;2.00;;
35114;SDS011;21292;52.416;13.046;2023-05-07T13:39:38;4.28;;;2.15;;
35114;SDS011;21292;52.416;13.046;2023-05-07T13:42:07;2.70;;;2.10;;
35114;SDS011;21292;52.416;13.046;2023-05-07T13:44:37;2.88;;;2.10;;
35114;SDS011;21292;52.416;13.046;2023-05-07T13:47:05;7.63;;;5.50;;
35114;SDS011;21292;52.416;13.046;2023-05-07T13:49:33;4.10;;;3.50;;
35114;SDS011;21292;52.416;13.046;2023-05-07T13:52:07;3.90;;;1.92;;
35114;SDS011;21292;52.416;13.046;2023-05-07T13:54:35;1.55;;;1.45;;
35114;SDS011;21292;52.416;13.046;2023-05-07T13:57:06;3.25;;;1.60;;
35114;SDS011;21292;52.416;13.046;2023-05-07T13:59:37;2.23;;;1.57;;
35114;SDS011;21292;52.416;13.046;2023-05-07T14:02:05;2.50;;;1.70;;
35114;SDS011;21292;52.416;13.046;2023-05-07T14:04:33;2.70;;;1.80;;
35114;SDS011;21292;52.416;13.046;2023-05-07T14:07:02;2.10;;;1.90;;
35114;SDS011;21292;52.416;13.046;2023-05-07T14:09:38;2.03;;;1.70;;
35114;SDS011;21292;52.416;13.046;2023-05-07T14:12:11;2.13;;;1.83;;
35114;SDS011;21292;52.416;13.046;2023-05-07T14:14:59;1.88;;;1.55;;
35114;SDS011;21292;52.416;13.046;2023-05-07T14:17:37;1.98;;;1.70;;
35114;SDS011;21292;52.416;13.046;2023-05-07T14:20:40;1.40;;;1.30;;
35114;SDS011;21292;52.416;13.046;2023-05-07T14:23:13;1.95;;;1.77;;
35114;SDS011;21292;52.416;13.046;2023-05-07T14:26:05;1.90;;;1.80;;
35114;SDS011;21292;52.416;13.046;2023-05-07T14:28:57;13.43;;;9.07;;
35114;SDS011;21292;52.416;13.046;2023-05-07T14:31:32;3.50;;;2.05;;
35114;SDS011;21292;52.416;13.046;2023-05-07T14:34:34;3.25;;;1.80;;
35114;SDS011;21292;52.416;13.046;2023-05-07T14:37:02;3.30;;;1.65;;
35114;SDS011;21292;52.416;13.046;2023-05-07T14:39:34;1.95;;;1.75;;
35114;SDS011;21292;52.416;13.046;2023-05-07T14:42:18;2.75;;;2.00;;
35114;SDS011;21292;52.416;13.046;2023-05-07T14:45:01;4.22;;;2.30;;
35114;SDS011;21292;52.416;13.046;2023-05-07T14:47:48;4.00;;;2.15;;
35114;SDS011;21292;52.416;13.046;2023-05-07T14:50:20;4.05;;;1.83;;
35114;SDS011;21292;52.416;13.046;2023-05-07T14:52:52;2.10;;;1.92;;
35114;SDS011;21292;52.416;13.046;2023-05-07T14:55:24;3.10;;;1.70;;
35114;SDS011;21292;52.416;13.046;2023-05-07T15:01:08;3.42;;;1.98;;